sensor_id;sensor_type;location;lat;lon;timestamp;pressure;altitude;pressure_sealevel;temperature;humidity
59367;BME280;45163;47.690;11.770;2023-02-03T00:00:47;94394.78;;;1.01;100.00
59367;BME280;45163;47.690;11.770;2023-02-03T00:03:13;94370.25;;;1.02;100.00
59367;BME280;45163;47.690;11.770;2023-02-03T00:05:40;94368.59;;;0.97;100.00
59367;BME280;45163;47.690;11.770;2023-02-03T00:08:07;94361.22;;;0.94;100.00
59367;BME280;45163;47.690;11.770;2023-02-03T00:10:35;94354.69;;;0.95;100.00
59367;BME280;45163;47.690;11.770;2023-02-03T00:13:03;94362.00;;;0.95;100.00
59367;BME280;45163;47.690;11.770;2023-02-03T00:15:29;94352.28;;;0.90;100.00
59367;BME280;45163;47.690;11.770;2023-02-03T00:17:55;94347.41;;;0.96;100.00
59367;BME280;45163;47.690;11.770;2023-02-03T00:20:21;94348.03;;;0.89;100.00
59367;BME280;45163;47.690;11.770;2023-02-03T00:22:47;94352.66;;;0.89;100.00
59367;BME280;45163;47.690;11.770;2023-02-03T00:25:13;94360.44;;;0.94;100.00
59367;BME280;45163;47.690;11.770;2023-02-03T00:27:39;94359.84;;;1.01;100.00
59367;BME280;45163;47.690;11.770;2023-02-03T00:30:05;94362.94;;;1.03;100.00
59367;BME280;45163;47.690;11.770;2023-02-03T00:32:31;94355.16;;;1.13;100.00
59367;BME280;45163;47.690;11.770;2023-02-03T00:34:57;94360.44;;;1.26;100.00
59367;BME280;45163;47.690;11.770;2023-02-03T00:37:23;94370.13;;;1.30;100.00
59367;BME280;45163;47.690;11.770;2023-02-03T00:39:49;94372.28;;;1.24;100.00
59367;BME280;45163;47.690;11.770;2023-02-03T00:42:15;94377.94;;;1.35;100.00
59367;BME280;45163;47.690;11.770;2023-02-03T00:44:41;94384.69;;;1.45;100.00
59367;BME280;45163;47.690;11.770;2023-02-03T00:47:07;94375.56;;;1.34;100.00
59367;BME280;45163;47.690;11.770;2023-02-03T00:49:33;94389.28;;;1.29;100.00
59367;BME280;45163;47.690;11.770;2023-02-03T00:51:59;94383.47;;;1.42;100.00
59367;BME280;45163;47.690;11.770;2023-02-03T00:54:25;94373.31;;;1.36;100.00
59367;BME280;45163;47.690;11.770;2023-02-03T00:56:51;94377.16;;;1.35;100.00
59367;BME280;45163;47.690;11.770;2023-02-03T00:59:17;94383.22;;;1.47;100.00
59367;BME280;45163;47.690;11.770;2023-02-03T01:01:43;94376.84;;;1.56;100.00
59367;BME280;45163;47.690;11.770;2023-02-03T01:04:09;94379.66;;;1.43;100.00
59367;BME280;45163;47.690;11.770;2023-02-03T01:06:35;94380.94;;;1.34;100.00
59367;BME280;45163;47.690;11.770;2023-02-03T01:09:02;94370.03;;;1.42;100.00
59367;BME280;45163;47.690;11.770;2023-02-03T01:11:28;94395.53;;;1.48;100.00
59367;BME280;45163;47.690;11.770;2023-02-03T01:13:55;94392.53;;;1.69;100.00
59367;BME280;45163;47.690;11.770;2023-02-03T01:16:24;94373.94;;;1.80;100.00
59367;BME280;45163;47.690;11.770;2023-02-03T01:18:50;94375.47;;;1.81;100.00
59367;BME280;45163;47.690;11.770;2023-02-03T01:21:19;94370.03;;;1.78;100.00
59367;BME280;45163;47.690;11.770;2023-02-03T01:23:45;94376.75;;;1.68;100.00
59367;BME280;45163;47.690;11.770;2023-02-03T01:26:14;94367.91;;;1.67;100.00
59367;BME280;45163;47.690;11.770;2023-02-03T01:28:41;94370.38;;;1.76;100.00
59367;BME280;45163;47.690;11.770;2023-02-03T01:31:14;94358.59;;;1.65;100.00
59367;BME280;45163;47.690;11.770;2023-02-03T01:33:40;94381.38;;;1.52;100.00
59367;BME280;45163;47.690;11.770;2023-02-03T01:36:11;94376.00;;;1.52;100.00
59367;BME280;45163;47.690;11.770;2023-02-03T01:38:38;94377.44;;;1.65;100.00
59367;BME280;45163;47.690;11.770;2023-02-03T01:41:09;94395.06;;;1.62;100.00
59367;BME280;45163;47.690;11.770;2023-02-03T01:43:37;94391.16;;;1.60;100.00
59367;BME280;45163;47.690;11.770;2023-02-03T01:46:17;94390.22;;;1.52;100.00
59367;BME280;45163;47.690;11.770;2023-02-03T01:48:45;94398.38;;;1.56;100.00
59367;BME280;45163;47.690;11.770;2023-02-03T01:51:11;94390.59;;;1.51;100.00
59367;BME280;45163;47.690;11.770;2023-02-03T01:53:37;94398.66;;;1.51;100.00
59367;BME280;45163;47.690;11.770;2023-02-03T01:56:04;94384.69;;;1.80;100.00
59367;BME280;45163;47.690;11.770;2023-02-03T01:58:34;94374.53;;;1.73;100.00
59367;BME280;45163;47.690;11.770;2023-02-03T02:01:02;94368.88;;;1.79;100.00
59367;BME280;45163;47.690;11.770;2023-02-03T02:03:44;94370.31;;;1.72;100.00
59367;BME280;45163;47.690;11.770;2023-02-03T02:06:13;94349.84;;;1.68;100.00
59367;BME280;45163;47.690;11.770;2023-02-03T02:08:41;94355.06;;;1.61;100.00
59367;BME280;45163;47.690;11.770;2023-02-03T02:11:08;94352.91;;;1.51;100.00
59367;BME280;45163;47.690;11.770;2023-02-03T02:13:35;94356.28;;;1.63;100.00
59367;BME280;45163;47.690;11.770;2023-02-03T02:34:55;94316.81;;;1.71;100.00
59367;BME280;45163;47.690;11.770;2023-02-03T02:37:36;94317.25;;;1.73;100.00
59367;BME280;45163;47.690;11.770;2023-02-03T02:42:57;94317.38;;;1.61;100.00
59367;BME280;45163;47.690;11.770;2023-02-03T02:45:37;94331.19;;;1.59;100.00
59367;BME280;45163;47.690;11.770;2023-02-03T02:50:57;94301.53;;;1.94;100.00
59367;BME280;45163;47.690;11.770;2023-02-03T02:53:28;94306.06;;;1.90;100.00
59367;BME280;45163;47.690;11.770;2023-02-03T02:55:58;94301.94;;;1.96;100.00
59367;BME280;45163;47.690;11.770;2023-02-03T02:58:28;94300.25;;;1.88;100.00
59367;BME280;45163;47.690;11.770;2023-02-03T03:00:57;94300.97;;;1.85;100.00
59367;BME280;45163;47.690;11.770;2023-02-03T03:03:23;94287.81;;;1.80;100.00
59367;BME280;45163;47.690;11.770;2023-02-03T03:05:59;94278.00;;;1.91;100.00
59367;BME280;45163;47.690;11.770;2023-02-03T03:08:50;94274.00;;;2.05;100.00
59367;BME280;45163;47.690;11.770;2023-02-03T03:11:18;94278.53;;;2.20;100.00
59367;BME280;45163;47.690;11.770;2023-02-03T03:13:48;94281.81;;;2.10;100.00
59367;BME280;45163;47.690;11.770;2023-02-03T03:16:17;94294.22;;;1.95;100.00
59367;BME280;45163;47.690;11.770;2023-02-03T03:18:48;94293.31;;;2.07;100.00
59367;BME280;45163;47.690;11.770;2023-02-03T03:21:20;94296.28;;;2.02;100.00
59367;BME280;45163;47.690;11.770;2023-02-03T03:23:50;94288.28;;;2.05;100.00
59367;BME280;45163;47.690;11.770;2023-02-03T03:26:21;94276.22;;;1.99;100.00
59367;BME280;45163;47.690;11.770;2023-02-03T03:29:13;94277.59;;;1.89;100.00
59367;BME280;45163;47.690;11.770;2023-02-03T03:31:41;94274.69;;;1.98;100.00
59367;BME280;45163;47.690;11.770;2023-02-03T03:34:09;94284.44;;;1.87;100.00
59367;BME280;45163;47.690;11.770;2023-02-03T03:37:02;94291.69;;;1.83;100.00
59367;BME280;45163;47.690;11.770;2023-02-03T03:39:58;94291.59;;;1.79;100.00
59367;BME280;45163;47.690;11.770;2023-02-03T03:42:27;94295.28;;;1.90;100.00
59367;BME280;45163;47.690;11.770;2023-02-03T03:47:59;94297.97;;;2.10;100.00
59367;BME280;45163;47.690;11.770;2023-02-03T03:50:30;94301.22;;;2.19;100.00
59367;BME280;45163;47.690;11.770;2023-02-03T03:52:59;94300.69;;;2.10;100.00
59367;BME280;45163;47.690;11.770;2023-02-03T03:55:28;94307.63;;;1.91;100.00
59367;BME280;45163;47.690;11.770;2023-02-03T03:58:05;94298.84;;;1.94;100.00
59367;BME280;45163;47.690;11.770;2023-02-03T04:00:34;94308.38;;;1.92;100.00
59367;BME280;45163;47.690;11.770;2023-02-03T04:03:22;94301.38;;;1.68;100.00
59367;BME280;45163;47.690;11.770;2023-02-03T04:05:50;94299.56;;;1.72;100.00
59367;BME280;45163;47.690;11.770;2023-02-03T04:08:16;94296.56;;;1.77;100.00
59367;BME280;45163;47.690;11.770;2023-02-03T04:10:42;94288.63;;;2.04;100.00
59367;BME280;45163;47.690;11.770;2023-02-03T04:13:10;94279.50;;;1.89;100.00
59367;BME280;45163;47.690;11.770;2023-02-03T04:15:37;94271.44;;;1.89;100.00
59367;BME280;45163;47.690;11.770;2023-02-03T04:18:03;94276.66;;;1.82;100.00
59367;BME280;45163;47.690;11.770;2023-02-03T04:20:30;94265.13;;;1.62;100.00
59367;BME280;45163;47.690;11.770;2023-02-03T04:22:57;94279.91;;;1.52;100.00
59367;BME280;45163;47.690;11.770;2023-02-03T04:25:24;94303.69;;;1.31;100.00
59367;BME280;45163;47.690;11.770;2023-02-03T04:27:50;94298.06;;;1.20;100.00
59367;BME280;45163;47.690;11.770;2023-02-03T04:30:16;94305.06;;;1.24;100.00
59367;BME280;45163;47.690;11.770;2023-02-03T04:32:44;94304.41;;;1.47;100.00
59367;BME280;45163;47.690;11.770;2023-02-03T04:35:10;94295.97;;;1.48;100.00
59367;BME280;45163;47.690;11.770;2023-02-03T04:37:36;94297.63;;;1.53;100.00
59367;BME280;45163;47.690;11.770;2023-02-03T04:40:02;94298.78;;;1.71;100.00
59367;BME280;45163;47.690;11.770;2023-02-03T04:42:28;94299.56;;;1.72;100.00
59367;BME280;45163;47.690;11.770;2023-02-03T04:44:54;94300.44;;;1.80;100.00
59367;BME280;45163;47.690;11.770;2023-02-03T04:47:20;94286.88;;;1.72;100.00
59367;BME280;45163;47.690;11.770;2023-02-03T04:49:46;94303.63;;;1.66;100.00
59367;BME280;45163;47.690;11.770;2023-02-03T04:52:13;94308.63;;;1.64;100.00
59367;BME280;45163;47.690;11.770;2023-02-03T04:54:39;94317.47;;;1.64;100.00
59367;BME280;45163;47.690;11.770;2023-02-03T04:57:05;94329.38;;;1.63;100.00
59367;BME280;45163;47.690;11.770;2023-02-03T04:59:31;94309.13;;;1.89;100.00
59367;BME280;45163;47.690;11.770;2023-02-03T05:01:57;94300.94;;;2.05;100.00
59367;BME280;45163;47.690;11.770;2023-02-03T05:04:26;94290.53;;;2.45;100.00
59367;BME280;45163;47.690;11.770;2023-02-03T05:06:52;94279.53;;;2.31;100.00
59367;BME280;45163;47.690;11.770;2023-02-03T05:09:18;94284.78;;;2.24;100.00
59367;BME280;45163;47.690;11.770;2023-02-03T05:11:44;94285.91;;;2.23;100.00
59367;BME280;45163;47.690;11.770;2023-02-03T05:14:09;94291.16;;;2.16;100.00
59367;BME280;45163;47.690;11.770;2023-02-03T05:16:37;94304.91;;;2.11;100.00
59367;BME280;45163;47.690;11.770;2023-02-03T05:19:02;94294.22;;;2.14;100.00
59367;BME280;45163;47.690;11.770;2023-02-03T05:21:28;94299.53;;;2.11;100.00
59367;BME280;45163;47.690;11.770;2023-02-03T05:23:54;94292.78;;;2.20;100.00
59367;BME280;45163;47.690;11.770;2023-02-03T05:26:20;94296.94;;;2.37;100.00
59367;BME280;45163;47.690;11.770;2023-02-03T05:28:46;94298.94;;;2.21;100.00
59367;BME280;45163;47.690;11.770;2023-02-03T05:31:12;94302.44;;;2.02;100.00
59367;BME280;45163;47.690;11.770;2023-02-03T05:33:38;94310.31;;;2.11;100.00
59367;BME280;45163;47.690;11.770;2023-02-03T05:36:04;94303.09;;;1.95;100.00
59367;BME280;45163;47.690;11.770;2023-02-03T05:38:30;94324.69;;;1.80;100.00
59367;BME280;45163;47.690;11.770;2023-02-03T05:40:56;94316.75;;;1.67;100.00
59367;BME280;45163;47.690;11.770;2023-02-03T05:43:41;94303.16;;;1.99;100.00
59367;BME280;45163;47.690;11.770;2023-02-03T05:46:07;94307.63;;;1.91;100.00
59367;BME280;45163;47.690;11.770;2023-02-03T05:48:33;94325.97;;;1.86;100.00
59367;BME280;45163;47.690;11.770;2023-02-03T05:50:59;94330.72;;;1.73;100.00
59367;BME280;45163;47.690;11.770;2023-02-03T05:53:25;94328.16;;;1.61;100.00
59367;BME280;45163;47.690;11.770;2023-02-03T05:55:52;94323.25;;;1.66;100.00
59367;BME280;45163;47.690;11.770;2023-02-03T05:58:18;94310.59;;;2.06;100.00
59367;BME280;45163;47.690;11.770;2023-02-03T06:00:44;94293.06;;;2.15;100.00
59367;BME280;45163;47.690;11.770;2023-02-03T06:03:11;94297.13;;;2.06;100.00
59367;BME280;45163;47.690;11.770;2023-02-03T06:05:41;94282.91;;;2.05;100.00
59367;BME280;45163;47.690;11.770;2023-02-03T06:08:10;94289.31;;;2.00;100.00
59367;BME280;45163;47.690;11.770;2023-02-03T06:10:36;94297.56;;;1.88;100.00
59367;BME280;45163;47.690;11.770;2023-02-03T06:13:10;94283.19;;;1.81;100.00
59367;BME280;45163;47.690;11.770;2023-02-03T06:15:36;94283.81;;;1.93;100.00
59367;BME280;45163;47.690;11.770;2023-02-03T06:18:02;94278.03;;;1.72;100.00
59367;BME280;45163;47.690;11.770;2023-02-03T06:20:28;94281.50;;;1.72;100.00
59367;BME280;45163;47.690;11.770;2023-02-03T06:22:54;94282.19;;;1.69;100.00
59367;BME280;45163;47.690;11.770;2023-02-03T06:25:20;94273.72;;;1.67;100.00
59367;BME280;45163;47.690;11.770;2023-02-03T06:27:47;94287.66;;;1.73;100.00
59367;BME280;45163;47.690;11.770;2023-02-03T06:30:13;94307.19;;;1.70;100.00
59367;BME280;45163;47.690;11.770;2023-02-03T06:32:39;94325.59;;;1.87;100.00
59367;BME280;45163;47.690;11.770;2023-02-03T06:35:06;94325.75;;;1.75;100.00
59367;BME280;45163;47.690;11.770;2023-02-03T06:37:32;94312.84;;;1.65;100.00
59367;BME280;45163;47.690;11.770;2023-02-03T06:39:58;94330.34;;;1.55;100.00
59367;BME280;45163;47.690;11.770;2023-02-03T06:42:24;94316.66;;;1.44;100.00
59367;BME280;45163;47.690;11.770;2023-02-03T06:44:50;94326.72;;;1.47;100.00
59367;BME280;45163;47.690;11.770;2023-02-03T06:47:16;94337.03;;;1.45;100.00
59367;BME280;45163;47.690;11.770;2023-02-03T06:49:42;94321.09;;;1.72;100.00
59367;BME280;45163;47.690;11.770;2023-02-03T06:52:08;94323.56;;;1.81;100.00
59367;BME280;45163;47.690;11.770;2023-02-03T06:54:34;94334.13;;;1.89;100.00
59367;BME280;45163;47.690;11.770;2023-02-03T06:57:00;94320.63;;;2.09;100.00
59367;BME280;45163;47.690;11.770;2023-02-03T06:59:25;94322.22;;;2.10;100.00
59367;BME280;45163;47.690;11.770;2023-02-03T07:01:51;94326.84;;;2.09;100.00
59367;BME280;45163;47.690;11.770;2023-02-03T07:04:17;94326.78;;;2.29;100.00
59367;BME280;45163;47.690;11.770;2023-02-03T07:06:43;94320.50;;;2.21;100.00
59367;BME280;45163;47.690;11.770;2023-02-03T07:09:09;94301.16;;;2.15;100.00
59367;BME280;45163;47.690;11.770;2023-02-03T07:11:35;94296.91;;;2.14;100.00
59367;BME280;45163;47.690;11.770;2023-02-03T07:14:01;94311.22;;;2.18;100.00
59367;BME280;45163;47.690;11.770;2023-02-03T07:16:27;94307.38;;;2.39;100.00
59367;BME280;45163;47.690;11.770;2023-02-03T07:18:54;94305.31;;;2.32;100.00
59367;BME280;45163;47.690;11.770;2023-02-03T07:21:20;94295.03;;;2.61;100.00
59367;BME280;45163;47.690;11.770;2023-02-03T07:23:46;94298.69;;;2.49;100.00
59367;BME280;45163;47.690;11.770;2023-02-03T07:26:13;94303.94;;;2.42;100.00
59367;BME280;45163;47.690;11.770;2023-02-03T07:28:40;94302.81;;;2.43;100.00
59367;BME280;45163;47.690;11.770;2023-02-03T07:31:06;94305.53;;;2.43;100.00
59367;BME280;45163;47.690;11.770;2023-02-03T07:33:36;94307.31;;;2.35;100.00
59367;BME280;45163;47.690;11.770;2023-02-03T07:36:03;94313.16;;;2.41;100.00
59367;BME280;45163;47.690;11.770;2023-02-03T07:38:29;94313.66;;;2.46;100.00
59367;BME280;45163;47.690;11.770;2023-02-03T07:40:55;94312.97;;;2.72;100.00
59367;BME280;45163;47.690;11.770;2023-02-03T07:43:22;94327.38;;;2.61;100.00
59367;BME280;45163;47.690;11.770;2023-02-03T07:45:48;94329.47;;;2.48;100.00
59367;BME280;45163;47.690;11.770;2023-02-03T07:48:14;94335.19;;;2.46;100.00
59367;BME280;45163;47.690;11.770;2023-02-03T07:50:40;94336.34;;;2.45;100.00
59367;BME280;45163;47.690;11.770;2023-02-03T07:53:06;94327.97;;;2.50;100.00
59367;BME280;45163;47.690;11.770;2023-02-03T07:55:36;94330.47;;;2.40;100.00
59367;BME280;45163;47.690;11.770;2023-02-03T07:58:03;94321.97;;;2.38;100.00
59367;BME280;45163;47.690;11.770;2023-02-03T08:00:29;94326.50;;;2.34;100.00
59367;BME280;45163;47.690;11.770;2023-02-03T08:02:54;94326.72;;;2.25;100.00
59367;BME280;45163;47.690;11.770;2023-02-03T08:05:20;94329.16;;;2.30;100.00
59367;BME280;45163;47.690;11.770;2023-02-03T08:07:46;94334.88;;;2.29;100.00
59367;BME280;45163;47.690;11.770;2023-02-03T08:10:13;94331.47;;;2.32;100.00
59367;BME280;45163;47.690;11.770;2023-02-03T08:12:40;94305.19;;;2.25;100.00
59367;BME280;45163;47.690;11.770;2023-02-03T08:15:08;94294.53;;;2.32;100.00
59367;BME280;45163;47.690;11.770;2023-02-03T08:17:34;94284.06;;;2.27;100.00
59367;BME280;45163;47.690;11.770;2023-02-03T08:20:01;94277.50;;;2.47;100.00
59367;BME280;45163;47.690;11.770;2023-02-03T08:22:27;94289.34;;;2.43;100.00
59367;BME280;45163;47.690;11.770;2023-02-03T08:24:53;94279.03;;;2.71;100.00
59367;BME280;45163;47.690;11.770;2023-02-03T08:27:20;94272.84;;;2.94;100.00
59367;BME280;45163;47.690;11.770;2023-02-03T08:29:47;94259.44;;;2.97;100.00
59367;BME280;45163;47.690;11.770;2023-02-03T08:32:19;94251.53;;;3.12;100.00
59367;BME280;45163;47.690;11.770;2023-02-03T08:34:49;94251.50;;;3.38;100.00
59367;BME280;45163;47.690;11.770;2023-02-03T08:37:18;94255.59;;;3.85;100.00
59367;BME280;45163;47.690;11.770;2023-02-03T08:39:45;94260.47;;;4.43;100.00
59367;BME280;45163;47.690;11.770;2023-02-03T08:42:12;94260.09;;;4.89;100.00
59367;BME280;45163;47.690;11.770;2023-02-03T08:44:38;94269.16;;;4.67;100.00
59367;BME280;45163;47.690;11.770;2023-02-03T08:47:05;94277.00;;;4.79;100.00
59367;BME280;45163;47.690;11.770;2023-02-03T08:49:31;94278.84;;;4.71;100.00
59367;BME280;45163;47.690;11.770;2023-02-03T08:51:58;94272.66;;;4.30;100.00
59367;BME280;45163;47.690;11.770;2023-02-03T08:54:24;94276.47;;;4.25;100.00
59367;BME280;45163;47.690;11.770;2023-02-03T08:56:51;94287.97;;;4.15;100.00
59367;BME280;45163;47.690;11.770;2023-02-03T08:59:17;94292.97;;;4.17;100.00
59367;BME280;45163;47.690;11.770;2023-02-03T09:01:43;94299.66;;;4.27;100.00
59367;BME280;45163;47.690;11.770;2023-02-03T09:04:11;94298.88;;;4.26;100.00
59367;BME280;45163;47.690;11.770;2023-02-03T09:06:38;94312.13;;;4.05;100.00
59367;BME280;45163;47.690;11.770;2023-02-03T09:09:04;94304.50;;;4.10;100.00
59367;BME280;45163;47.690;11.770;2023-02-03T09:11:30;94299.38;;;4.02;100.00
59367;BME280;45163;47.690;11.770;2023-02-03T09:13:56;94318.00;;;4.10;100.00
59367;BME280;45163;47.690;11.770;2023-02-03T09:16:23;94331.13;;;4.12;100.00
59367;BME280;45163;47.690;11.770;2023-02-03T09:18:50;94327.75;;;4.18;100.00
59367;BME280;45163;47.690;11.770;2023-02-03T09:21:16;94331.34;;;4.30;100.00
59367;BME280;45163;47.690;11.770;2023-02-03T09:23:43;94325.47;;;4.58;100.00
59367;BME280;45163;47.690;11.770;2023-02-03T09:26:12;94327.78;;;4.59;100.00
59367;BME280;45163;47.690;11.770;2023-02-03T09:28:39;94316.81;;;4.41;100.00
59367;BME280;45163;47.690;11.770;2023-02-03T09:31:07;94304.25;;;4.22;100.00
59367;BME280;45163;47.690;11.770;2023-02-03T09:33:36;94312.22;;;4.12;100.00
59367;BME280;45163;47.690;11.770;2023-02-03T09:36:04;94313.34;;;4.07;100.00
59367;BME280;45163;47.690;11.770;2023-02-03T09:38:32;94300.88;;;3.99;100.00
59367;BME280;45163;47.690;11.770;2023-02-03T09:41:47;94293.16;;;3.97;100.00
59367;BME280;45163;47.690;11.770;2023-02-03T09:44:00;94299.28;;;3.94;100.00
59367;BME280;45163;47.690;11.770;2023-02-03T09:46:32;94301.94;;;4.24;100.00
59367;BME280;45163;47.690;11.770;2023-02-03T09:51:47;94315.69;;;4.46;100.00
59367;BME280;45163;47.690;11.770;2023-02-03T09:54:19;94313.56;;;4.29;100.00
59367;BME280;45163;47.690;11.770;2023-02-03T09:56:46;94319.88;;;4.06;100.00
59367;BME280;45163;47.690;11.770;2023-02-03T09:59:18;94313.25;;;4.00;100.00
59367;BME280;45163;47.690;11.770;2023-02-03T10:01:58;94304.59;;;4.21;100.00
59367;BME280;45163;47.690;11.770;2023-02-03T10:04:36;94313.50;;;4.21;100.00
59367;BME280;45163;47.690;11.770;2023-02-03T10:07:13;94312.88;;;4.35;100.00
59367;BME280;45163;47.690;11.770;2023-02-03T10:18:16;94311.66;;;5.11;100.00
59367;BME280;45163;47.690;11.770;2023-02-03T10:20:50;94306.56;;;5.02;100.00
59367;BME280;45163;47.690;11.770;2023-02-03T10:23:37;94284.44;;;4.89;100.00
59367;BME280;45163;47.690;11.770;2023-02-03T10:26:16;94277.94;;;5.01;100.00
59367;BME280;45163;47.690;11.770;2023-02-03T10:28:55;94282.31;;;5.16;100.00
59367;BME280;45163;47.690;11.770;2023-02-03T10:31:23;94293.56;;;4.74;100.00
59367;BME280;45163;47.690;11.770;2023-02-03T10:33:59;94287.31;;;4.66;100.00
59367;BME280;45163;47.690;11.770;2023-02-03T10:41:59;94294.84;;;4.46;100.00
59367;BME280;45163;47.690;11.770;2023-02-03T10:44:40;94261.38;;;4.62;100.00
59367;BME280;45163;47.690;11.770;2023-02-03T10:47:16;94252.34;;;4.47;100.00
59367;BME280;45163;47.690;11.770;2023-02-03T10:49:46;94269.66;;;4.39;100.00
59367;BME280;45163;47.690;11.770;2023-02-03T10:54:50;94253.75;;;4.30;100.00
59367;BME280;45163;47.690;11.770;2023-02-03T10:57:16;94254.81;;;4.22;100.00
59367;BME280;45163;47.690;11.770;2023-02-03T10:59:44;94252.69;;;4.05;100.00
59367;BME280;45163;47.690;11.770;2023-02-03T11:02:28;94257.91;;;3.87;100.00
59367;BME280;45163;47.690;11.770;2023-02-03T11:05:21;94265.91;;;3.80;100.00
59367;BME280;45163;47.690;11.770;2023-02-03T11:07:50;94258.28;;;3.85;100.00
59367;BME280;45163;47.690;11.770;2023-02-03T11:10:37;94250.97;;;3.86;100.00
59367;BME280;45163;47.690;11.770;2023-02-03T11:13:24;94251.50;;;3.98;100.00
59367;BME280;45163;47.690;11.770;2023-02-03T11:26:18;94242.03;;;3.82;100.00
59367;BME280;45163;47.690;11.770;2023-02-03T11:28:46;94248.66;;;3.88;100.00
59367;BME280;45163;47.690;11.770;2023-02-03T11:31:19;94260.63;;;3.87;100.00
59367;BME280;45163;47.690;11.770;2023-02-03T11:33:50;94274.06;;;3.83;100.00
59367;BME280;45163;47.690;11.770;2023-02-03T11:36:17;94271.78;;;3.85;100.00
59367;BME280;45163;47.690;11.770;2023-02-03T11:38:44;94269.41;;;3.80;100.00
59367;BME280;45163;47.690;11.770;2023-02-03T11:41:18;94272.66;;;3.63;100.00
59367;BME280;45163;47.690;11.770;2023-02-03T11:43:45;94263.94;;;3.73;100.00
59367;BME280;45163;47.690;11.770;2023-02-03T11:46:12;94259.84;;;3.86;100.00
59367;BME280;45163;47.690;11.770;2023-02-03T11:54:29;94241.56;;;3.72;100.00
59367;BME280;45163;47.690;11.770;2023-02-03T11:57:14;94256.47;;;3.63;100.00
59367;BME280;45163;47.690;11.770;2023-02-03T12:02:42;94261.47;;;3.34;100.00
59367;BME280;45163;47.690;11.770;2023-02-03T12:08:12;94241.97;;;3.44;100.00
59367;BME280;45163;47.690;11.770;2023-02-03T12:11:28;94233.22;;;3.55;100.00
59367;BME280;45163;47.690;11.770;2023-02-03T12:19:32;94193.06;;;3.49;100.00
59367;BME280;45163;47.690;11.770;2023-02-03T12:30:24;94148.41;;;3.56;100.00
59367;BME280;45163;47.690;11.770;2023-02-03T12:32:56;94138.28;;;3.83;100.00
59367;BME280;45163;47.690;11.770;2023-02-03T12:35:49;94130.34;;;4.00;100.00
59367;BME280;45163;47.690;11.770;2023-02-03T12:38:57;94127.78;;;3.74;100.00
59367;BME280;45163;47.690;11.770;2023-02-03T12:41:27;94131.81;;;3.54;100.00
59367;BME280;45163;47.690;11.770;2023-02-03T12:43:59;94132.63;;;3.58;100.00
59367;BME280;45163;47.690;11.770;2023-02-03T12:46:29;94148.16;;;3.68;100.00
59367;BME280;45163;47.690;11.770;2023-02-03T12:51:47;94125.41;;;3.69;100.00
59367;BME280;45163;47.690;11.770;2023-02-03T12:59:43;94120.44;;;4.15;100.00
59367;BME280;45163;47.690;11.770;2023-02-03T13:02:25;94113.47;;;4.11;100.00
59367;BME280;45163;47.690;11.770;2023-02-03T13:04:56;94103.31;;;4.00;100.00
59367;BME280;45163;47.690;11.770;2023-02-03T13:07:35;94088.34;;;4.07;100.00
59367;BME280;45163;47.690;11.770;2023-02-03T13:10:37;94079.81;;;4.05;100.00
59367;BME280;45163;47.690;11.770;2023-02-03T13:13:10;94080.94;;;4.00;100.00
59367;BME280;45163;47.690;11.770;2023-02-03T13:15:43;94074.00;;;3.99;100.00
59367;BME280;45163;47.690;11.770;2023-02-03T13:18:17;94063.97;;;3.99;100.00
59367;BME280;45163;47.690;11.770;2023-02-03T13:20:46;94062.44;;;4.02;100.00
59367;BME280;45163;47.690;11.770;2023-02-03T13:23:14;94042.13;;;4.19;100.00
59367;BME280;45163;47.690;11.770;2023-02-03T13:25:53;94057.38;;;3.93;100.00
59367;BME280;45163;47.690;11.770;2023-02-03T13:42:37;94044.38;;;4.10;100.00
59367;BME280;45163;47.690;11.770;2023-02-03T13:45:22;94045.16;;;4.14;100.00
59367;BME280;45163;47.690;11.770;2023-02-03T13:47:52;94036.78;;;4.30;100.00
59367;BME280;45163;47.690;11.770;2023-02-03T13:50:25;94031.03;;;4.38;100.00
59367;BME280;45163;47.690;11.770;2023-02-03T13:53:02;94021.84;;;4.50;100.00
59367;BME280;45163;47.690;11.770;2023-02-03T13:55:50;94001.41;;;4.56;100.00
59367;BME280;45163;47.690;11.770;2023-02-03T13:58:23;94002.97;;;4.57;100.00
59367;BME280;45163;47.690;11.770;2023-02-03T14:03:41;94028.72;;;4.37;100.00
59367;BME280;45163;47.690;11.770;2023-02-03T14:09:17;94029.81;;;4.29;100.00
59367;BME280;45163;47.690;11.770;2023-02-03T14:11:45;94023.13;;;4.08;100.00
59367;BME280;45163;47.690;11.770;2023-02-03T14:16:39;94012.50;;;3.78;100.00
59367;BME280;45163;47.690;11.770;2023-02-03T14:22:15;93989.19;;;3.59;100.00
59367;BME280;45163;47.690;11.770;2023-02-03T14:24:44;93977.94;;;3.50;100.00
59367;BME280;45163;47.690;11.770;2023-02-03T14:27:19;93978.66;;;3.43;100.00
59367;BME280;45163;47.690;11.770;2023-02-03T14:30:02;94004.75;;;3.32;100.00
59367;BME280;45163;47.690;11.770;2023-02-03T14:35:18;94008.53;;;3.24;100.00
59367;BME280;45163;47.690;11.770;2023-02-03T14:37:56;94017.78;;;3.23;100.00
59367;BME280;45163;47.690;11.770;2023-02-03T15:07:58;93940.00;;;2.91;100.00
59367;BME280;45163;47.690;11.770;2023-02-03T15:10:29;93961.91;;;2.86;100.00
59367;BME280;45163;47.690;11.770;2023-02-03T15:13:21;93969.94;;;3.20;100.00
59367;BME280;45163;47.690;11.770;2023-02-03T15:15:48;93946.31;;;3.50;100.00
59367;BME280;45163;47.690;11.770;2023-02-03T15:18:30;93942.53;;;3.59;100.00
59367;BME280;45163;47.690;11.770;2023-02-03T15:20:57;93940.47;;;3.41;100.00
59367;BME280;45163;47.690;11.770;2023-02-03T15:23:24;93941.72;;;3.55;100.00
59367;BME280;45163;47.690;11.770;2023-02-03T15:25:59;93925.13;;;3.53;100.00
59367;BME280;45163;47.690;11.770;2023-02-03T15:28:27;93927.00;;;3.45;100.00
59367;BME280;45163;47.690;11.770;2023-02-03T15:31:18;93923.88;;;3.39;100.00